Terminal Aerodrome Forecast
Issued by NWS

Home | Current Version | Previous Version | Text Only | Print | Product List | Glossary Off
Versions: 1 2 3 4 5 6 7 8 9 10 11 12

000
FTUS43 KICT 231727
TAFSLN
TAF
KSLN 231727Z 2318/2418 33017G24KT P6SM OVC020
     FM231900 33017G24KT 5SM -RASN OVC015
      TEMPO 2320/2324 2SM -SN SCT009 OVC015
     FM240200 34020G28KT P6SM OVC015=

USA.gov is the U.S. government's official web portal to all federal, state and local government web resources and services.